Flight Track Log - Related Links

Times and Time Zones

All times are in EDT time to prevent confusion due to time zone crossing. See the SKW3476 flight status page for this flight to view local times or setup timezone preferences in your user account.

Time Position Orientation Groundspeed Altitude Reporting Facility
EDT Latitude Longitude Course Direction KTS MPH feet Rate Location/Type
Fri 07:42:58 PM 47.4306 -122.3097 181° South 173 199 1,000  Level Seattle Center
Fri 07:44:12 PM 47.3725 -122.3108 180° South 204 235 3,100 1,733 Climbing Seattle Center
Fri 07:45:13 PM 47.3028 -122.3111 176° South 261 300 4,900 2,115 Climbing Seattle Center
Fri 07:46:14 PM 47.2239 -122.3036 147° Southeast 290 334 7,400 2,705 Climbing Seattle Center
Fri 07:47:15 PM 47.1453 -122.2286 162° South 284 327 10,400 2,164 Climbing Seattle Center
Fri 07:48:16 PM 47.0583 -122.1867 163° South 332 382 11,800 1,721 Climbing Seattle Center
Fri 07:49:17 PM 46.9636 -122.1439 163° South 358 412 13,900 2,244 Climbing Seattle Center
Fri 07:50:19 PM 46.8717 -122.1019 163° South 352 405 16,400 2,098 Climbing Seattle Center
Fri 07:51:20 PM 46.7789 -122.0608 163° South 352 405 18,200 1,574 Climbing Seattle Center
Fri 07:52:21 PM 46.6828 -122.0183 165° South 360 414 19,600 1,426 Climbing Seattle Center
Fri 07:53:22 PM 46.5792 -121.9792 170° South 385 443 21,100 1,623 Climbing Seattle Center
Fri 07:54:23 PM 46.4531 -121.9478 171° South 387 445 22,900 1,574 Climbing Seattle Center
Fri 07:55:24 PM 46.3467 -121.9239 170° South 391 450 24,300 1,426 Climbing Seattle Center
Fri 07:56:25 PM 46.2397 -121.8978 170° South 392 451 25,800 1,426 Climbing Seattle Center
Fri 07:57:26 PM 46.1258 -121.8703 170° South 393 452 27,200 1,073 Climbing Seattle Center
Fri 07:58:28 PM 46.0175 -121.8442 170° South 394 453 28,000 780 Climbing Seattle Center
Fri 07:59:29 PM 45.9078 -121.8169 171° South 399 459 28,800 836 Climbing Seattle Center
Fri 08:00:30 PM 45.7964 -121.7903 171° South 403 464 29,700 885 Climbing Seattle Center
Fri 08:01:31 PM 45.6850 -121.7644 171° South 406 467 30,600 836 Climbing Seattle Center
Fri 08:02:32 PM 45.5747 -121.7389 170° South 404 465 31,400 738 Climbing Seattle Center
Fri 08:03:33 PM 45.4633 -121.7122 170° South 406 467 32,100 738 Climbing Seattle Center
Fri 08:04:34 PM 45.3503 -121.6853 171° South 410 472 32,900 878 Climbing Seattle Center
Fri 08:05:36 PM 45.2164 -121.6558 171° South 408 470 33,900 829 Climbing Seattle Center
Fri 08:06:37 PM 45.1047 -121.6294 171° South 407 468 34,600 590 Climbing Seattle Center
Fri 08:07:38 PM 44.9925 -121.6044 171° South 409 471 35,100 541 Climbing Seattle Center
Fri 08:08:39 PM 44.8794 -121.5783 171° South 411 473 35,700 492 Climbing Seattle Center
Fri 08:09:40 PM 44.7656 -121.5519 171° South 415 478 36,100 344 Climbing Seattle Center
Fri 08:10:41 PM 44.6497 -121.5258 171° South 420 483 36,400 344 Climbing Seattle Center
Fri 08:11:42 PM 44.5347 -121.5008 171° South 427 491 36,800 393 Climbing Seattle Center
Fri 08:12:43 PM 44.4153 -121.4742 171° South 434 499 37,200 492 Climbing Seattle Center
Fri 08:13:44 PM 44.2917 -121.4458 171° South 437 503 37,800 488 Climbing Seattle Center
Fri 08:14:46 PM 44.1733 -121.4208 171° South 434 499 38,200 585 Climbing Seattle Center
Fri 08:15:47 PM 44.0322 -121.3881 171° South 430 495 39,000 393 Climbing Seattle Center
Fri 08:16:48 PM 43.9169 -121.3622 171° South 425 489 39,000  Level Seattle Center
Fri 08:17:49 PM 43.8061 -121.3383 172° South 427 491 39,000  Level Seattle Center
Fri 08:18:50 PM 43.6861 -121.3136 171° South 433 498 39,000  Level Seattle Center
Fri 08:19:52 PM 43.5653 -121.2872 171° South 437 503 39,000  Level Seattle Center
Fri 08:20:53 PM 43.4444 -121.2594 171° South 439 505 39,000  Level Seattle Center
Fri 08:21:54 PM 43.3206 -121.2322 172° South 446 513 39,000  Level Seattle Center
Fri 08:22:55 PM 43.1964 -121.2075 171° South 450 518 39,000  Level Seattle Center
Fri 08:23:57 PM 43.0456 -121.1750 170° South 454 522 39,000  Level Seattle Center
Fri 08:24:58 PM 42.9192 -121.1436 172° South 457 526 39,000  Level Seattle Center
Fri 08:25:59 PM 42.7953 -121.1194 171° South 452 520 39,000  Level Seattle Center
Fri 08:27:00 PM 42.6717 -121.0925 171° South 448 516 39,000  Level Seattle Center
Fri 08:28:01 PM 42.5489 -121.0669 171° South 446 513 39,000  Level Seattle Center
Fri 08:29:03 PM 42.4264 -121.0394 171° South 445 512 39,000  Level Seattle Center
Fri 08:30:04 PM 42.3019 -121.0136 170° South 442 509 39,000  Level Seattle Center
Fri 08:31:05 PM 42.1847 -120.9856 170° South 439 505 39,000  Level Seattle Center
Fri 08:32:06 PM 42.0642 -120.9583 172° South 438 504 39,000  Level Seattle Center
Fri 08:33:07 PM 41.9450 -120.9364 172° South 435 501 39,000  Level Seattle Center
Fri 08:34:09 PM 41.8250 -120.9125 171° South 434 499 39,000  Level Seattle Center
Fri 08:35:10 PM 41.7058 -120.8872 171° South 432 497 39,000  Level Seattle Center
Fri 08:36:11 PM 41.5844 -120.8619 172° South 431 496 39,000  Level Seattle Center
Fri 08:37:12 PM 41.4703 -120.8397 171° South 427 491 39,000  Level Seattle Center
Fri 08:38:13 PM 41.3275 -120.8086 171° South 430 495 39,000  Level Seattle Center
Fri 08:39:14 PM 41.2097 -120.7844 172° South 429 494 39,000  Level Seattle Center
Fri 08:40:16 PM 41.0914 -120.7614 172° South 428 493 39,000  Level Seattle Center
Fri 08:41:17 PM 40.9731 -120.7389 170° South 429 494 39,000  Level Seattle Center
Fri 08:42:18 PM 40.8556 -120.7106 169° South 430 495 39,000  Level Seattle Center
Fri 08:43:19 PM 40.7392 -120.6814 169° South 427 491 39,000  Level Seattle Center
Fri 08:44:20 PM 40.6225 -120.6522 169° South 426 490 39,000  Level Seattle Center
Fri 08:45:21 PM 40.5061 -120.6228 170° South 426 490 39,000  Level Seattle Center
Fri 08:46:23 PM 40.3886 -120.5958 168° South 427 491 39,000  Level Seattle Center
Fri 08:46:45 PM 40.3375 -120.5814 170° South 429 494 39,000  Level Oakland Center
Fri 08:47:46 PM 40.2206 -120.5547 169° South 429 494 39,000  Level Oakland Center
Fri 08:48:45 PM 40.1039 -120.5256 174° South 429 494 39,000  Level Oakland Center
Fri 08:49:45 PM 39.9808 -120.5075 168° South 419 482 39,000  Level Oakland Center
Fri 08:50:46 PM 39.8639 -120.4758 171° South 419 482 39,000  Level Oakland Center
Fri 08:51:45 PM 39.7469 -120.4522 169° South 419 482 39,000  Level Oakland Center
Fri 08:52:45 PM 39.6531 -120.4286 169° South 425 489 39,000  Level Oakland Center
Fri 08:53:45 PM 39.5175 -120.3947 169° South 425 489 39,000  Level Oakland Center
Fri 08:54:46 PM 39.4006 -120.3661 169° South 425 489 39,000  Level Oakland Center
Fri 08:55:45 PM 39.2836 -120.3378 169° South 430 495 39,000  Level Oakland Center
Fri 08:56:45 PM 39.1647 -120.3092 170° South 430 495 39,000  Level Oakland Center
Fri 08:57:45 PM 39.0497 -120.2836 169° South 430 495 39,000  Level Oakland Center
Fri 08:58:45 PM 38.9328 -120.2553 169° South 430 495 39,000  Level Oakland Center
Fri 08:59:46 PM 38.8158 -120.2272 170° South 430 495 39,000  Level Oakland Center
Fri 09:00:46 PM 38.7011 -120.2017 171° South 430 495 39,000  Level Oakland Center
Fri 09:01:45 PM 38.5819 -120.1764 169° South 430 495 39,000  Level Oakland Center
Fri 09:02:45 PM 38.4628 -120.1461 171° South 430 495 39,000  Level Oakland Center
Fri 09:03:45 PM 38.3481 -120.1233 170° South 430 495 39,000  Level Oakland Center
Fri 09:04:45 PM 38.2289 -120.0958 169° South 430 495 39,000  Level Oakland Center
Fri 09:05:45 PM 38.1119 -120.0681 171° South 430 495 39,000  Level Oakland Center
Fri 09:06:45 PM 37.9928 -120.0433 170° South 430 495 39,000  Level Oakland Center
Fri 09:07:46 PM 37.8883 -120.0208 169° South 430 495 39,000  Level Oakland Center
Fri 09:08:46 PM 37.7733 -119.9933 172° South 430 495 39,000  Level Oakland Center
Fri 09:09:46 PM 37.6522 -119.9714 168° South 430 495 39,000  Level Oakland Center
Fri 09:10:45 PM 37.5372 -119.9417 170° South 430 495 39,000  Level Oakland Center
Fri 09:11:45 PM 37.4181 -119.9144 172° South 430 495 39,000  Level Oakland Center
Fri 09:12:46 PM 37.3011 -119.8925 170° South 430 495 39,000  Level Oakland Center
Fri 09:13:46 PM 37.1819 -119.8656 174° South 430 495 39,000  Level Oakland Center
Fri 09:14:46 PM 37.0544 -119.8494 170° South 430 495 39,000  Level Oakland Center
Fri 09:15:45 PM 36.9333 -119.8225 171° South 430 495 39,000  Level Oakland Center
Fri 09:16:45 PM 36.8161 -119.7983 170° South 430 495 39,000  Level Oakland Center
Fri 09:17:45 PM 36.6950 -119.7717 170° South 430 495 39,000  Level Oakland Center
Fri 09:19:46 PM 36.4567 -119.7186 171° South 435 501 39,000  Level Oakland Center
Fri 09:20:46 PM 36.3394 -119.6950 169° South 435 501 39,000  Level Oakland Center
Fri 09:21:57 PM 36.1919 -119.6594 171° South 432 497 39,000  Level Los Angeles Center
Fri 09:22:57 PM 36.0736 -119.6361 173° South 437 503 39,000  Level Los Angeles Center
Fri 09:23:57 PM 35.9511 -119.6181 181° South 443 510 39,000  Level Los Angeles Center
Fri 09:24:57 PM 35.8300 -119.6206 182° South 443 510 39,000  Level Los Angeles Center
Fri 09:25:57 PM 35.7089 -119.6256 182° South 437 503 39,000  Level Los Angeles Center
Fri 09:26:57 PM 35.5856 -119.6303 181° South 442 509 39,000  Level Los Angeles Center
Fri 09:27:57 PM 35.4686 -119.6331 182° South 442 509 39,000  Level Los Angeles Center
Fri 09:28:57 PM 35.3517 -119.6381 169° South 437 503 39,000  Level Los Angeles Center
Fri 09:29:57 PM 35.2336 -119.6103 147° Southeast 432 497 39,000 -900 Level Los Angeles Center
Fri 09:30:57 PM 35.1314 -119.5297 148° Southeast 414 476 37,200 -1,750 Descending Los Angeles Center
Fri 09:31:57 PM 35.0417 -119.4600 145° Southeast 425 489 35,500 -1,950 Descending Los Angeles Center
Fri 09:32:57 PM 34.9417 -119.3750 145° Southeast 431 496 33,300 -2,200 Descending Los Angeles Center
Fri 09:33:57 PM 34.8417 -119.2900 145° Southeast 437 503 31,100 -1,900 Descending Los Angeles Center
Fri 09:34:57 PM 34.7375 -119.2025 146° Southeast 448 516 29,500 -1,850 Descending Los Angeles Center
Fri 09:35:57 PM 34.6353 -119.1181 148° Southeast 448 516 27,400 -2,100 Descending Los Angeles Center
Fri 09:36:57 PM 34.5306 -119.0386 145° Southeast 448 516 25,300 -2,100 Descending Los Angeles Center
Fri 09:37:57 PM 34.4283 -118.9519 150° Southeast 448 516 23,200 -2,150 Descending Los Angeles Center
Fri 09:38:57 PM 34.3194 -118.8753 163° South 453 521 21,000 -2,150 Descending Los Angeles Center
Fri 09:39:57 PM 34.2056 -118.8339 162° South 443 510 18,900 -2,100 Descending Los Angeles Center
Fri 09:40:57 PM 34.1000 -118.7928 164° South 417 480 16,800 -1,850 Descending Los Angeles Center
Fri 09:41:57 PM 33.9986 -118.7572 162° South 402 463 15,200 -1,400 Descending Los Angeles Center
Fri 09:42:57 PM 33.8911 -118.7161 163° South 380 437 14,000 -600 Descending Los Angeles Center
Fri 09:43:57 PM 33.7958 -118.6808 163° South 369 425 14,000 -100 Level Los Angeles Center
Fri 09:44:57 PM 33.7006 -118.6456 164° South 364 419 13,800 -1,400 Descending Los Angeles Center
Fri 09:45:57 PM 33.6072 -118.6128 148° Southeast 358 412 11,200 -2,400 Descending Los Angeles Center
Fri 09:46:57 PM 33.5311 -118.5558 120° Southeast 341 392 9,000 -2,300 Descending Los Angeles Center
Fri 09:47:57 PM 33.4950 -118.4800 69° East 283 326 6,600 -2,400 Descending Los Angeles Center
Fri 09:48:57 PM 33.5217 -118.3961 73° East 240 276 4,200 -2,000 Descending Los Angeles Center
Fri 09:49:57 PM 33.5464 -118.2969 75° East 260 299 2,600 -1,300 Descending Los Angeles Center
Fri 09:50:57 PM 33.5644 -118.2178 55° Northeast 272 313 1,600 -500 Descending Los Angeles Center
Fri 09:51:57 PM 33.6119 -118.1367 33° Northeast 270 311 1,600  Level Los Angeles Center
Fri 09:52:57 PM 33.6583 -118.1003 28° Northeast 241 277 1,600  Level Los Angeles Center
Fri 09:53:57 PM 33.7175 -118.0617 340° North 222 255 1,600 -47 Level Los Angeles Center
Fri 09:55:05 PM 33.7667 -118.0833 309° West 189 217 1,500 -496 Descending Southern California TRACON
Fri 09:56:10 PM 33.8000 -118.1333 309° West 132 152 500 -923 Descending Southern California TRACON

Login

Don't have an account? Register now (free) for customized features, flight alerts, and more!